Terminal Aerodrome Forecast
Issued by NWS

Home | Current Version | Previous Version | Text Only | Print | Product List | Glossary On
Versions: 1 2 3 4 5 6 7 8 9 10 11 12
000
FTUS45 KABQ 281750
TAFLVS
TAF
KLVS 281750Z 2818/2918 22010G17KT P6SM SCT150
     FM282000 24017G27KT P6SM SCT200
     FM290200 32008KT P6SM FEW100
     FM290700 02006KT P6SM FEW250
     FM291700 21011G21KT P6SM SCT130 SCT250=

USA.gov is the U.S. government's official web portal to all federal, state and local government web resources and services.